createdAt,value
2023-03-04T00:00:43.177Z,4.97
2023-03-04T00:03:11.900Z,3.78
2023-03-04T00:05:40.264Z,7.43
2023-03-04T00:08:09.985Z,7.35
2023-03-04T00:10:38.350Z,2.47
2023-03-04T00:13:07.971Z,3.83
2023-03-04T00:15:36.372Z,8.07
2023-03-04T00:18:05.018Z,4.03
2023-03-04T00:20:33.346Z,4.25
2023-03-04T00:23:01.703Z,2.25
2023-03-04T00:25:34.554Z,3.25
2023-03-04T00:28:02.991Z,7.82
2023-03-04T00:30:32.221Z,2.78
2023-03-04T00:33:00.572Z,3.70
2023-03-04T00:35:28.940Z,5.15
2023-03-04T00:37:57.319Z,4.30
2023-03-04T00:40:25.615Z,3.55
2023-03-04T00:42:55.288Z,3.90
2023-03-04T00:45:23.639Z,3.13
2023-03-04T00:47:51.957Z,8.80
2023-03-04T00:50:20.404Z,3.50
2023-03-04T00:52:48.945Z,4.60
2023-03-04T00:55:17.493Z,4.95
2023-03-04T00:57:45.833Z,2.67
2023-03-04T01:00:16.772Z,5.25
2023-03-04T01:02:45.158Z,2.85
2023-03-04T01:05:13.542Z,3.45
2023-03-04T01:07:41.867Z,4.72
2023-03-04T01:10:11.116Z,3.38
2023-03-04T01:12:40.274Z,2.63
2023-03-04T01:15:09.790Z,5.10
2023-03-04T01:17:39.575Z,3.70
2023-03-04T01:20:08.993Z,5.45
2023-03-04T01:22:37.304Z,2.55
2023-03-04T01:25:06.343Z,6.40
2023-03-04T01:27:34.713Z,3.63
2023-03-04T01:30:03.187Z,3.97
2023-03-04T01:32:31.592Z,5.55
2023-03-04T01:35:01.378Z,4.20
2023-03-04T01:37:29.773Z,3.15
2023-03-04T01:39:58.100Z,5.38
2023-03-04T01:42:26.453Z,4.43
2023-03-04T01:44:54.759Z,4.65
2023-03-04T01:47:23.815Z,6.38
2023-03-04T01:49:55.178Z,3.10
2023-03-04T01:52:25.847Z,3.75
2023-03-04T01:54:54.168Z,5.38
2023-03-04T01:57:23.404Z,6.38
2023-03-04T02:00:15.936Z,2.53
2023-03-04T02:02:44.224Z,1.73
2023-03-04T02:05:12.668Z,4.47
2023-03-04T02:07:42.649Z,5.72
2023-03-04T02:10:12.076Z,3.38
2023-03-04T02:12:40.464Z,4.03
2023-03-04T02:15:09.548Z,2.03
2023-03-04T02:17:37.991Z,5.90
2023-03-04T02:20:13.144Z,3.05
2023-03-04T02:22:46.067Z,4.20
2023-03-04T02:25:15.964Z,2.85
2023-03-04T02:27:45.657Z,2.42
2023-03-04T02:30:23.490Z,1.60
2023-03-04T02:32:52.055Z,1.77
2023-03-04T02:35:20.663Z,2.33
2023-03-04T02:37:48.977Z,2.95
2023-03-04T02:40:19.716Z,2.90
2023-03-04T02:42:49.373Z,3.92
2023-03-04T02:45:39.579Z,2.75
2023-03-04T02:48:08.383Z,2.25
2023-03-04T02:50:38.479Z,8.60
2023-03-04T02:53:06.965Z,5.32
2023-03-04T02:55:35.409Z,4.35
2023-03-04T02:58:05.149Z,2.42
2023-03-04T03:00:33.598Z,4.93
2023-03-04T03:03:02.049Z,2.10
2023-03-04T03:05:31.899Z,2.25
2023-03-04T03:08:00.261Z,6.60
2023-03-04T03:10:28.611Z,3.58
2023-03-04T03:12:57.198Z,5.40
2023-03-04T03:15:26.922Z,4.47
2023-03-04T03:17:55.288Z,3.47
2023-03-04T03:20:23.622Z,5.85
2023-03-04T03:22:51.928Z,3.85
2023-03-04T03:25:20.313Z,5.20
2023-03-04T03:27:48.639Z,6.93
2023-03-04T03:30:17.038Z,1.55
2023-03-04T03:32:46.800Z,1.40
2023-03-04T03:35:15.204Z,4.85
2023-03-04T03:37:43.585Z,5.10
2023-03-04T03:40:13.500Z,2.38
2023-03-04T03:42:41.860Z,4.68
2023-03-04T03:45:10.929Z,2.13
2023-03-04T03:47:39.362Z,2.33
2023-03-04T03:50:10.066Z,3.47
2023-03-04T03:52:38.410Z,5.53
2023-03-04T03:55:07.101Z,4.22
2023-03-04T03:57:35.546Z,1.75
2023-03-04T04:00:04.254Z,2.38
2023-03-04T04:02:32.688Z,5.18
2023-03-04T04:05:01.155Z,2.53
2023-03-04T04:07:30.865Z,3.63
2023-03-04T04:09:59.290Z,2.70
2023-03-04T04:12:27.606Z,4.28
2023-03-04T04:14:55.903Z,3.38
2023-03-04T04:17:24.203Z,2.50
2023-03-04T04:19:57.080Z,3.22
2023-03-04T04:22:25.419Z,5.32
2023-03-04T04:24:55.069Z,3.78
2023-03-04T04:27:23.577Z,5.53
2023-03-04T04:29:51.879Z,14.85
2023-03-04T04:32:20.259Z,3.15
2023-03-04T04:34:48.584Z,2.13
2023-03-04T04:37:16.894Z,2.10
2023-03-04T04:39:45.231Z,1.02
2023-03-04T04:42:15.049Z,2.33
2023-03-04T04:44:43.433Z,4.97
2023-03-04T04:47:11.747Z,3.42
2023-03-04T04:49:40.096Z,2.70
2023-03-04T04:52:08.395Z,3.45
2023-03-04T04:54:36.733Z,4.35
2023-03-04T04:57:05.051Z,2.10
2023-03-04T04:59:34.708Z,3.50
2023-03-04T05:02:04.747Z,9.48
2023-03-04T05:04:33.179Z,1.58
2023-03-04T05:07:01.552Z,8.23
2023-03-04T05:09:29.862Z,2.35
2023-03-04T05:11:58.231Z,2.95
2023-03-04T05:14:26.528Z,3.28
2023-03-04T05:16:56.188Z,5.13
2023-03-04T05:19:24.613Z,2.13
2023-03-04T05:21:53.094Z,2.10
2023-03-04T05:24:21.515Z,4.93
2023-03-04T05:26:49.955Z,4.63
2023-03-04T05:29:18.248Z,5.18
2023-03-04T05:31:46.547Z,3.95
2023-03-04T05:34:16.372Z,2.95
2023-03-04T05:36:44.743Z,4.03
2023-03-04T05:39:13.065Z,2.70
2023-03-04T05:41:41.452Z,3.13
2023-03-04T05:44:09.842Z,3.33
2023-03-04T05:46:38.227Z,4.60
2023-03-04T05:49:06.576Z,2.22
2023-03-04T05:51:36.322Z,5.25
2023-03-04T05:54:04.748Z,4.68
2023-03-04T05:56:33.532Z,3.90
2023-03-04T05:59:01.921Z,4.97
2023-03-04T06:01:31.320Z,1.85
2023-03-04T06:03:59.669Z,2.55
2023-03-04T06:06:28.126Z,1.33
2023-03-04T06:08:57.845Z,3.22
2023-03-04T06:11:26.158Z,5.03
2023-03-04T06:13:54.460Z,4.15
2023-03-04T06:16:23.024Z,1.67
2023-03-04T06:18:51.363Z,14.48
2023-03-04T06:21:19.792Z,3.63
2023-03-04T06:23:48.135Z,2.00
2023-03-04T06:26:17.789Z,1.48
2023-03-04T06:28:46.183Z,4.03
2023-03-04T06:31:14.636Z,2.67
2023-03-04T06:33:43.011Z,3.08
2023-03-04T06:36:11.363Z,2.30
2023-03-04T06:38:39.712Z,18.23
2023-03-04T06:41:09.165Z,7.22
2023-03-04T06:43:38.898Z,6.68
2023-03-04T06:46:07.666Z,4.45
2023-03-04T06:48:36.202Z,3.47
2023-03-04T06:51:08.087Z,3.03
2023-03-04T06:53:37.055Z,7.07
2023-03-04T06:56:06.061Z,1.23
2023-03-04T06:58:34.619Z,2.53
2023-03-04T07:01:13.447Z,3.00
2023-03-04T07:03:42.064Z,3.55
2023-03-04T07:06:10.963Z,5.53
2023-03-04T07:08:39.488Z,4.00
2023-03-04T07:11:07.810Z,4.80
2023-03-04T07:13:38.399Z,5.43
2023-03-04T07:16:07.423Z,2.63
2023-03-04T07:18:37.263Z,2.78
2023-03-04T07:21:05.855Z,1.80
2023-03-04T07:23:34.433Z,10.73
2023-03-04T07:26:04.727Z,33.28
2023-03-04T07:28:33.043Z,21.60
2023-03-04T07:31:09.996Z,43.88
2023-03-04T07:33:39.756Z,29.52
2023-03-04T07:36:08.210Z,32.38
2023-03-04T07:38:36.558Z,40.13
2023-03-04T07:41:05.040Z,20.30
2023-03-04T07:43:33.463Z,24.60
2023-03-04T07:46:02.288Z,17.95
2023-03-04T07:48:30.742Z,15.02
2023-03-04T07:51:10.366Z,10.75
2023-03-04T07:53:38.957Z,9.60
2023-03-04T07:56:08.219Z,7.72
2023-03-04T07:58:36.591Z,8.57
2023-03-04T08:01:11.598Z,9.23
2023-03-04T08:03:42.492Z,4.20
2023-03-04T08:06:16.407Z,6.10
2023-03-04T08:08:44.863Z,5.88
2023-03-04T08:11:14.362Z,5.85
2023-03-04T08:13:42.716Z,6.15
2023-03-04T08:16:12.976Z,4.30
2023-03-04T08:18:42.727Z,2.10
2023-03-04T08:21:19.186Z,2.88
2023-03-04T08:23:50.352Z,5.03
2023-03-04T08:26:22.770Z,1.73
2023-03-04T08:28:51.259Z,3.00
2023-03-04T08:31:22.150Z,3.13
2023-03-04T08:33:51.203Z,5.95
2023-03-04T08:36:20.969Z,7.70
2023-03-04T08:38:52.274Z,13.75
2023-03-04T08:41:20.576Z,25.05
2023-03-04T08:43:48.975Z,12.02
2023-03-04T08:46:17.417Z,11.32
2023-03-04T08:48:48.212Z,10.50
2023-03-04T08:51:17.034Z,15.20
2023-03-04T08:53:48.035Z,8.70
2023-03-04T08:56:16.935Z,3.72
2023-03-04T08:58:45.368Z,7.10
2023-03-04T09:01:14.294Z,5.70
2023-03-04T09:03:45.310Z,8.63
2023-03-04T09:06:14.732Z,4.20
2023-03-04T09:08:43.152Z,7.00
2023-03-04T09:11:13.017Z,8.02
2023-03-04T09:13:41.447Z,4.35
2023-03-04T09:16:10.807Z,5.45
2023-03-04T09:18:39.768Z,4.32
2023-03-04T09:21:08.329Z,3.42
2023-03-04T09:23:36.751Z,4.07
2023-03-04T09:26:19.219Z,3.17
2023-03-04T09:28:47.604Z,4.32
2023-03-04T09:31:17.965Z,4.88
2023-03-04T09:33:46.315Z,5.07
2023-03-04T09:36:20.453Z,1.48
2023-03-04T09:38:48.825Z,2.92
2023-03-04T09:41:19.584Z,3.05
2023-03-04T09:43:49.659Z,2.30
2023-03-04T09:46:19.472Z,5.13
2023-03-04T09:48:48.749Z,1.00
2023-03-04T09:51:21.224Z,1.02
2023-03-04T09:53:58.608Z,2.50
2023-03-04T09:56:28.343Z,1.50
2023-03-04T09:59:01.343Z,3.40
2023-03-04T10:01:32.543Z,3.42
2023-03-04T10:04:04.767Z,1.77
2023-03-04T10:06:33.278Z,3.85
2023-03-04T10:09:02.501Z,1.60
2023-03-04T10:11:36.259Z,1.95
2023-03-04T10:14:17.234Z,2.15
2023-03-04T10:16:47.823Z,1.55
2023-03-04T10:19:32.031Z,1.30
2023-03-04T10:22:00.508Z,2.05
2023-03-04T10:24:30.494Z,1.75
2023-03-04T10:27:03.461Z,1.73
2023-03-04T10:29:34.262Z,1.10
2023-03-04T10:32:05.147Z,1.13
2023-03-04T10:34:33.540Z,0.75
2023-03-04T10:37:02.550Z,1.02
2023-03-04T10:39:35.547Z,2.10
2023-03-04T10:42:07.901Z,1.33
2023-03-04T10:44:38.653Z,1.10
2023-03-04T10:47:07.553Z,1.85
2023-03-04T10:49:40.552Z,2.03
2023-03-04T10:52:16.662Z,1.67
2023-03-04T10:54:48.354Z,2.83
2023-03-04T10:57:19.007Z,0.95
2023-03-04T10:59:50.571Z,5.25
2023-03-04T11:02:22.186Z,1.52
2023-03-04T11:04:57.558Z,2.13
2023-03-04T11:07:26.701Z,2.65
2023-03-04T11:09:58.222Z,1.40
2023-03-04T11:12:35.051Z,1.33
2023-03-04T11:15:03.510Z,1.27
2023-03-04T11:17:43.039Z,0.73
2023-03-04T11:20:15.585Z,1.63
2023-03-04T11:22:44.412Z,5.90
2023-03-04T11:25:22.750Z,1.55
2023-03-04T11:27:53.631Z,0.75
2023-03-04T11:30:43.883Z,1.13
2023-03-04T11:33:22.247Z,1.13
2023-03-04T11:35:58.425Z,0.77
2023-03-04T11:38:30.289Z,1.90
2023-03-04T11:41:01.564Z,1.48
2023-03-04T11:43:33.488Z,0.73
2023-03-04T11:46:19.933Z,0.90
2023-03-04T11:48:53.434Z,0.93
2023-03-04T11:51:25.204Z,1.50
2023-03-04T11:54:02.679Z,1.23
2023-03-04T11:56:37.987Z,1.23
2023-03-04T11:59:36.136Z,1.05
2023-03-04T12:02:13.798Z,3.83
2023-03-04T12:05:00.605Z,1.48
2023-03-04T12:07:49.618Z,0.97
2023-03-04T12:10:23.733Z,1.20
2023-03-04T12:13:10.718Z,0.73
2023-03-04T12:15:42.630Z,3.90
2023-03-04T12:18:26.618Z,1.55
2023-03-04T12:21:00.861Z,1.33
2023-03-04T12:23:48.024Z,2.58
2023-03-04T12:26:24.138Z,1.63
2023-03-04T12:28:57.230Z,0.55
2023-03-04T12:31:35.673Z,0.68
2023-03-04T12:34:31.403Z,0.45
2023-03-04T12:37:10.878Z,0.68
2023-03-04T12:39:40.797Z,0.38
2023-03-04T12:42:17.092Z,0.77
2023-03-04T12:44:47.854Z,0.97
2023-03-04T12:47:27.926Z,0.88
2023-03-04T12:50:05.665Z,0.60
2023-03-04T12:52:40.288Z,1.13
2023-03-04T12:55:13.521Z,2.67
2023-03-04T12:57:41.899Z,1.17
2023-03-04T13:00:21.381Z,1.15
2023-03-04T13:02:57.373Z,2.15
2023-03-04T13:05:45.749Z,1.60
2023-03-04T13:08:21.377Z,1.13
2023-03-04T13:10:50.988Z,0.90
2023-03-04T13:13:42.719Z,1.63
2023-03-04T13:16:32.498Z,4.05
2023-03-04T13:19:02.240Z,1.40
2023-03-04T13:21:31.604Z,2.65
2023-03-04T13:24:01.510Z,5.43
2023-03-04T13:26:31.149Z,1.45
2023-03-04T13:29:31.977Z,2.10
2023-03-04T13:32:04.021Z,2.38
2023-03-04T13:34:50.453Z,3.25
2023-03-04T13:37:37.479Z,1.77
2023-03-04T13:40:28.243Z,3.60
2023-03-04T13:42:56.646Z,3.30
2023-03-04T13:45:32.927Z,4.30
2023-03-04T13:48:01.408Z,1.37
2023-03-04T13:50:37.475Z,1.48
2023-03-04T13:53:31.478Z,1.43
2023-03-04T13:56:07.766Z,2.90
2023-03-04T13:58:38.730Z,3.17
2023-03-04T14:01:07.610Z,2.95
2023-03-04T14:03:38.141Z,1.83
2023-03-04T14:06:20.652Z,2.35
2023-03-04T14:08:52.516Z,1.23
2023-03-04T14:11:41.655Z,2.70
2023-03-04T14:14:12.490Z,1.02
2023-03-04T14:16:41.888Z,5.13
2023-03-04T14:19:20.933Z,4.28
2023-03-04T14:21:52.094Z,4.25
2023-03-04T14:24:21.162Z,3.78
2023-03-04T14:26:49.627Z,2.83
2023-03-04T14:29:25.521Z,5.35
2023-03-04T14:31:57.474Z,3.13
2023-03-04T14:34:27.299Z,2.03
2023-03-04T14:36:56.998Z,3.10
2023-03-04T14:39:30.299Z,2.70
2023-03-04T14:42:01.191Z,4.00
2023-03-04T14:44:36.012Z,3.42
2023-03-04T14:47:10.223Z,6.93
2023-03-04T14:49:38.655Z,3.00
2023-03-04T14:52:08.402Z,1.90
2023-03-04T14:54:37.583Z,2.58
2023-03-04T14:57:31.690Z,1.88
2023-03-04T15:00:15.821Z,2.05
2023-03-04T15:02:49.420Z,4.30
2023-03-04T15:05:25.438Z,4.63
2023-03-04T15:08:07.075Z,5.47
2023-03-04T15:10:36.665Z,2.63
2023-03-04T15:13:07.276Z,2.22
2023-03-04T15:15:42.845Z,4.72
2023-03-04T15:18:28.503Z,6.75
2023-03-04T15:20:58.356Z,5.30
2023-03-04T15:23:30.996Z,3.80
2023-03-04T15:26:06.715Z,4.43
2023-03-04T15:28:36.069Z,5.60
2023-03-04T15:31:06.424Z,5.53
2023-03-04T15:33:41.356Z,5.55
2023-03-04T15:36:12.054Z,2.85
2023-03-04T15:38:41.742Z,5.03
2023-03-04T15:41:10.449Z,2.65
2023-03-04T15:43:38.806Z,3.97
2023-03-04T15:46:07.184Z,4.22
2023-03-04T15:48:35.657Z,4.82
2023-03-04T15:51:04.224Z,3.97
2023-03-04T15:53:33.936Z,6.72
2023-03-04T15:56:03.664Z,3.30
2023-03-04T15:58:34.900Z,3.80
2023-03-04T16:01:03.722Z,3.47
2023-03-04T16:03:32.232Z,4.25
2023-03-04T16:06:00.561Z,4.28
2023-03-04T16:08:28.881Z,3.80
2023-03-04T16:10:57.338Z,5.57
2023-03-04T16:13:27.102Z,10.48
2023-03-04T16:15:55.955Z,3.38
2023-03-04T16:18:24.708Z,5.07
2023-03-04T16:20:53.084Z,4.80
2023-03-04T16:23:22.745Z,6.40
2023-03-04T16:25:53.323Z,3.33
2023-03-04T16:28:21.690Z,3.88
2023-03-04T16:30:51.398Z,2.40
2023-03-04T16:33:19.856Z,1.85
2023-03-04T16:35:52.282Z,2.53
2023-03-04T16:38:25.794Z,3.83
2023-03-04T16:40:54.377Z,5.13
2023-03-04T16:43:26.866Z,4.75
2023-03-04T16:46:02.109Z,4.85
2023-03-04T16:48:30.576Z,1.38
2023-03-04T16:50:59.327Z,1.98
2023-03-04T16:53:30.422Z,2.15
2023-03-04T16:55:59.630Z,3.13
2023-03-04T16:58:28.030Z,1.38
2023-03-04T17:00:57.846Z,4.47
2023-03-04T17:03:26.223Z,2.38
2023-03-04T17:05:54.632Z,2.67
2023-03-04T17:08:23.034Z,2.28
2023-03-04T17:10:52.473Z,5.18
2023-03-04T17:13:20.870Z,3.72
2023-03-04T17:15:49.301Z,7.07
2023-03-04T17:18:20.462Z,1.80
2023-03-04T17:20:49.004Z,1.83
2023-03-04T17:23:17.411Z,0.88
2023-03-04T17:25:45.762Z,0.80
2023-03-04T17:28:14.157Z,2.85
2023-03-04T17:30:42.607Z,3.22
2023-03-04T17:33:10.917Z,1.70
2023-03-04T17:35:41.164Z,3.22
2023-03-04T17:38:11.138Z,3.17
2023-03-04T17:40:42.297Z,1.83
2023-03-04T17:43:12.180Z,3.08
2023-03-04T17:45:42.025Z,1.90
2023-03-04T17:48:14.989Z,2.33
2023-03-04T17:50:50.695Z,1.67
2023-03-04T17:53:19.079Z,0.90
2023-03-04T17:55:52.332Z,1.75
2023-03-04T17:58:20.704Z,1.10
2023-03-04T18:00:49.162Z,0.63
2023-03-04T18:03:17.512Z,0.95
2023-03-04T18:05:45.910Z,1.17
2023-03-04T18:08:15.598Z,1.55
2023-03-04T18:10:44.000Z,1.08
2023-03-04T18:13:12.382Z,1.20
2023-03-04T18:15:40.767Z,2.53
2023-03-04T18:18:09.464Z,3.95
2023-03-04T18:20:37.829Z,1.77
2023-03-04T18:23:06.187Z,3.08
2023-03-04T18:25:35.923Z,1.63
2023-03-04T18:28:04.251Z,1.45
2023-03-04T18:30:32.796Z,2.55
2023-03-04T18:33:02.053Z,1.75
2023-03-04T18:35:30.511Z,2.70
2023-03-04T18:37:59.888Z,1.73
2023-03-04T18:40:28.818Z,4.18
2023-03-04T18:43:02.784Z,2.03
2023-03-04T18:45:32.481Z,1.98
2023-03-04T18:48:01.087Z,3.53
2023-03-04T18:50:34.536Z,2.95
2023-03-04T18:53:02.920Z,1.23
2023-03-04T18:55:31.856Z,1.58
2023-03-04T18:58:02.557Z,3.35
2023-03-04T19:00:34.135Z,1.42
2023-03-04T19:03:03.468Z,4.68
2023-03-04T19:05:32.622Z,2.53
2023-03-04T19:08:01.056Z,1.17
2023-03-04T19:10:36.085Z,0.95
2023-03-04T19:13:08.639Z,1.60
2023-03-04T19:15:36.987Z,2.42
2023-03-04T19:18:05.582Z,5.38
2023-03-04T19:20:33.993Z,3.17
2023-03-04T19:23:02.330Z,1.85
2023-03-04T19:25:30.828Z,2.80
2023-03-04T19:27:59.134Z,2.92
2023-03-04T19:30:29.549Z,2.13
2023-03-04T19:32:59.073Z,3.55
2023-03-04T19:35:27.427Z,2.40
2023-03-04T19:37:57.047Z,1.02
2023-03-04T19:40:27.657Z,2.60
2023-03-04T19:42:56.472Z,1.38
2023-03-04T19:45:28.472Z,3.30
2023-03-04T19:50:42.377Z,2.55
2023-03-04T19:53:18.342Z,3.70
2023-03-04T19:55:49.624Z,3.83
2023-03-04T19:58:17.946Z,3.08
2023-03-04T20:00:46.450Z,2.05
2023-03-04T20:03:16.216Z,1.73
2023-03-04T20:05:46.749Z,7.13
2023-03-04T20:08:15.257Z,2.35
2023-03-04T20:10:44.889Z,3.08
2023-03-04T20:13:13.307Z,1.20
2023-03-04T20:15:43.703Z,3.10
2023-03-04T20:18:14.322Z,3.78
2023-03-04T20:20:46.662Z,2.03
2023-03-04T20:23:20.109Z,1.83
2023-03-04T20:25:53.408Z,1.15
2023-03-04T20:28:21.785Z,1.77
2023-03-04T20:30:50.253Z,1.58
2023-03-04T20:33:20.942Z,2.90
2023-03-04T20:35:50.680Z,0.77
2023-03-04T20:38:19.015Z,6.65
2023-03-04T20:40:47.391Z,1.27
2023-03-04T20:43:15.783Z,2.00
2023-03-04T20:45:44.090Z,4.57
2023-03-04T20:48:12.454Z,0.95
2023-03-04T20:50:42.907Z,1.95
2023-03-04T20:53:14.204Z,2.83
2023-03-04T20:55:42.627Z,3.17
2023-03-04T20:58:13.623Z,4.30
2023-03-04T21:00:56.036Z,3.53
2023-03-04T21:03:27.195Z,1.88
2023-03-04T21:05:55.638Z,2.13
2023-03-04T21:08:25.332Z,1.88
2023-03-04T21:11:04.885Z,3.05
2023-03-04T21:13:36.905Z,2.47
2023-03-04T21:16:05.931Z,3.17
2023-03-04T21:18:34.406Z,1.65
2023-03-04T21:21:02.876Z,3.17
2023-03-04T21:23:32.581Z,3.80
2023-03-04T21:26:03.344Z,2.72
2023-03-04T21:28:31.738Z,2.10
2023-03-04T21:31:00.234Z,2.25
2023-03-04T21:33:31.473Z,1.70
2023-03-04T21:36:00.183Z,5.30
2023-03-04T21:38:28.633Z,3.20
2023-03-04T21:40:58.321Z,2.40
2023-03-04T21:43:29.488Z,2.40
2023-03-04T21:45:58.380Z,1.90
2023-03-04T21:48:28.410Z,1.58
2023-03-04T21:50:56.707Z,2.60
2023-03-04T21:53:46.561Z,4.65
2023-03-04T21:56:16.346Z,3.85
2023-03-04T21:58:45.836Z,2.13
2023-03-04T22:01:14.955Z,2.65
2023-03-04T22:03:43.509Z,3.08
2023-03-04T22:06:12.363Z,2.90
2023-03-04T22:08:43.588Z,2.97
2023-03-04T22:11:12.387Z,2.45
2023-03-04T22:13:42.155Z,2.03
2023-03-04T22:16:18.062Z,2.58
2023-03-04T22:18:47.735Z,2.67
2023-03-04T22:21:16.884Z,4.97
2023-03-04T22:23:45.303Z,4.95
2023-03-04T22:26:14.818Z,3.15
2023-03-04T22:28:45.688Z,2.78
2023-03-04T22:31:15.159Z,2.20
2023-03-04T22:33:44.657Z,4.07
2023-03-04T22:36:13.396Z,1.85
2023-03-04T22:38:41.794Z,3.13
2023-03-04T22:41:13.743Z,2.38
2023-03-04T22:43:48.237Z,6.40
2023-03-04T22:46:19.716Z,1.35
2023-03-04T22:48:48.058Z,2.15
2023-03-04T22:51:16.437Z,2.20
2023-03-04T22:53:45.007Z,6.13
2023-03-04T22:56:13.931Z,4.78
2023-03-04T22:58:42.612Z,1.70
2023-03-04T23:01:12.506Z,1.33
2023-03-04T23:03:40.998Z,9.15
2023-03-04T23:06:10.323Z,4.53
2023-03-04T23:08:39.242Z,3.05
2023-03-04T23:11:09.126Z,6.28
2023-03-04T23:13:37.655Z,2.28
2023-03-04T23:16:07.914Z,3.35
2023-03-04T23:18:39.094Z,4.35
2023-03-04T23:21:07.866Z,3.10
2023-03-04T23:23:36.336Z,4.93
2023-03-04T23:26:09.307Z,2.53
2023-03-04T23:28:37.736Z,2.08
2023-03-04T23:31:06.248Z,6.05
2023-03-04T23:33:37.092Z,1.80
2023-03-04T23:36:09.655Z,3.95
2023-03-04T23:38:37.980Z,1.65
2023-03-04T23:41:06.329Z,3.55
2023-03-04T23:43:34.710Z,2.15
2023-03-04T23:46:03.087Z,2.88
2023-03-04T23:48:31.615Z,1.77
2023-03-04T23:51:01.655Z,2.55
2023-03-04T23:53:33.024Z,7.22
2023-03-04T23:56:01.412Z,4.05
2023-03-04T23:58:29.833Z,2.50
